createdAt,value
2022-12-25T00:01:56.294Z,13.40
2022-12-25T00:04:30.400Z,13.40
2022-12-25T00:07:01.932Z,13.30
2022-12-25T00:09:45.625Z,13.30
2022-12-25T00:12:21.739Z,13.30
2022-12-25T00:15:15.228Z,13.30
2022-12-25T00:17:45.149Z,13.30
2022-12-25T00:20:16.468Z,13.30
2022-12-25T00:22:43.348Z,13.30
2022-12-25T00:25:10.127Z,13.30
2022-12-25T00:27:42.685Z,13.30
2022-12-25T00:30:28.214Z,13.30
2022-12-25T00:32:54.957Z,13.50
2022-12-25T00:35:59.385Z,13.30
2022-12-25T00:38:27.892Z,13.30
2022-12-25T00:41:12.337Z,13.30
2022-12-25T00:43:41.877Z,13.30
2022-12-25T00:46:20.496Z,13.20
2022-12-25T00:48:48.529Z,13.20
2022-12-25T00:51:21.487Z,13.30
2022-12-25T00:54:09.849Z,13.30
2022-12-25T00:57:06.353Z,13.30
2022-12-25T00:59:52.769Z,13.30
2022-12-25T01:02:32.091Z,13.30
2022-12-25T01:05:26.618Z,13.30
2022-12-25T01:08:04.767Z,13.20
2022-12-25T01:10:37.234Z,13.30
2022-12-25T01:13:17.068Z,13.30
2022-12-25T01:16:06.299Z,13.30
2022-12-25T01:18:33.212Z,13.30
2022-12-25T01:21:11.534Z,13.30
2022-12-25T01:23:43.440Z,13.30
2022-12-25T01:26:25.704Z,13.30
2022-12-25T01:28:52.650Z,13.30
2022-12-25T01:31:21.665Z,13.30
2022-12-25T01:33:49.181Z,13.30
2022-12-25T01:36:25.238Z,13.30
2022-12-25T01:38:53.438Z,13.30
2022-12-25T01:41:22.306Z,13.30
2022-12-25T01:44:15.739Z,13.20
2022-12-25T01:46:43.965Z,13.30
2022-12-25T01:49:11.056Z,13.20
2022-12-25T01:52:10.791Z,13.20
2022-12-25T01:55:18.455Z,13.10
2022-12-25T01:57:46.027Z,13.20
2022-12-25T02:00:14.079Z,13.20
2022-12-25T02:03:16.152Z,13.20
2022-12-25T02:06:12.665Z,13.20
2022-12-25T02:08:55.134Z,13.20
2022-12-25T02:11:53.251Z,13.20
2022-12-25T02:14:21.117Z,13.20
2022-12-25T02:16:58.794Z,13.20
2022-12-25T02:22:21.843Z,13.20
2022-12-25T02:25:08.367Z,13.10
2022-12-25T02:28:11.846Z,13.20
2022-12-25T02:30:55.542Z,13.20
2022-12-25T02:34:03.440Z,13.20
2022-12-25T02:36:51.538Z,13.20
2022-12-25T02:39:50.875Z,13.20
2022-12-25T02:43:04.643Z,13.10
2022-12-25T02:46:14.576Z,13.10
2022-12-25T02:49:37.555Z,13.20
2022-12-25T02:52:32.298Z,13.10
2022-12-25T02:55:40.966Z,13.10
2022-12-25T02:58:31.295Z,13.20
2022-12-25T03:01:33.178Z,13.10
2022-12-25T03:07:06.113Z,13.20
2022-12-25T03:09:59.903Z,13.10
2022-12-25T03:12:57.844Z,13.10
2022-12-25T03:18:39.849Z,13.10
2022-12-25T03:24:32.447Z,13.20
2022-12-25T03:26:59.217Z,13.20
2022-12-25T03:29:51.243Z,13.20
2022-12-25T03:32:42.865Z,13.20
2022-12-25T03:35:44.319Z,13.20
2022-12-25T03:38:46.122Z,13.10
2022-12-25T03:41:41.707Z,13.20
2022-12-25T03:44:59.907Z,13.10
2022-12-25T03:48:18.176Z,13.10
2022-12-25T03:51:14.392Z,13.20
2022-12-25T03:57:15.544Z,13.10
2022-12-25T04:00:01.285Z,13.10
2022-12-25T04:03:07.359Z,13.10
2022-12-25T04:05:53.189Z,13.10
2022-12-25T04:08:44.025Z,13.10
2022-12-25T04:11:44.424Z,13.10
2022-12-25T04:14:29.576Z,13.10
2022-12-25T04:17:42.852Z,13.20
2022-12-25T04:20:37.942Z,13.10
2022-12-25T04:23:46.393Z,13.10
2022-12-25T04:26:37.921Z,13.20
2022-12-25T04:29:39.295Z,13.10
2022-12-25T04:32:24.725Z,13.10
2022-12-25T04:35:10.140Z,13.10
2022-12-25T04:37:37.107Z,13.10
2022-12-25T04:40:23.593Z,13.10
2022-12-25T04:45:32.369Z,13.10
2022-12-25T04:48:04.700Z,13.10
2022-12-25T04:50:55.242Z,13.10
2022-12-25T04:53:28.542Z,13.10
2022-12-25T04:56:11.763Z,13.10
2022-12-25T04:58:58.040Z,13.10
2022-12-25T05:01:31.740Z,13.30
2022-12-25T05:04:07.824Z,13.00
2022-12-25T05:06:51.160Z,13.10
2022-12-25T05:09:48.652Z,13.20
2022-12-25T05:12:24.781Z,13.20
2022-12-25T05:14:55.960Z,13.10
2022-12-25T05:20:38.155Z,13.10
2022-12-25T05:23:15.311Z,13.10
2022-12-25T05:25:51.692Z,13.10
2022-12-25T05:28:32.280Z,13.10
2022-12-25T05:31:12.751Z,13.10
2022-12-25T05:33:48.815Z,13.00
2022-12-25T05:36:29.222Z,13.20
2022-12-25T05:39:14.909Z,13.50
2022-12-25T05:41:48.014Z,13.00
2022-12-25T05:44:25.480Z,13.00
2022-12-25T05:47:01.480Z,13.00
2022-12-25T05:49:40.055Z,13.00
2022-12-25T05:52:17.798Z,13.00
2022-12-25T05:55:01.276Z,12.90
2022-12-25T05:57:47.343Z,13.00
2022-12-25T06:00:31.337Z,13.00
2022-12-25T06:03:02.832Z,13.00
2022-12-25T06:05:43.668Z,13.00
2022-12-25T06:08:21.520Z,12.90
2022-12-25T06:10:48.583Z,12.90
2022-12-25T06:13:15.610Z,13.00
2022-12-25T06:15:42.752Z,13.00
2022-12-25T06:18:09.564Z,13.00
2022-12-25T06:20:36.490Z,13.00
2022-12-25T06:23:03.303Z,13.00
2022-12-25T06:25:30.110Z,13.00
2022-12-25T06:27:57.080Z,13.00
2022-12-25T06:30:23.938Z,13.00
2022-12-25T06:32:50.729Z,13.00
2022-12-25T06:35:17.505Z,13.00
2022-12-25T06:37:44.279Z,13.00
2022-12-25T06:40:13.041Z,13.00
2022-12-25T06:42:39.873Z,13.00
2022-12-25T06:45:07.138Z,13.00
2022-12-25T06:47:33.878Z,12.90
2022-12-25T06:50:00.679Z,12.90
2022-12-25T06:52:27.463Z,12.90
2022-12-25T06:54:54.324Z,12.80
2022-12-25T06:57:21.211Z,12.90
2022-12-25T06:59:53.133Z,12.90
2022-12-25T07:02:23.215Z,12.90
2022-12-25T07:04:50.492Z,12.80
2022-12-25T07:07:24.702Z,12.90
2022-12-25T07:09:51.506Z,12.80
2022-12-25T07:12:20.841Z,12.90
2022-12-25T07:14:50.117Z,12.90
2022-12-25T07:17:17.757Z,12.90
2022-12-25T07:19:45.953Z,12.90
2022-12-25T07:22:13.739Z,12.90
2022-12-25T07:24:42.316Z,12.90
2022-12-25T07:27:09.101Z,12.90
2022-12-25T07:29:35.868Z,12.90
2022-12-25T07:32:02.767Z,12.90
2022-12-25T07:34:30.805Z,12.90
2022-12-25T07:36:57.588Z,12.90
2022-12-25T07:39:24.356Z,12.80
2022-12-25T07:41:53.790Z,12.80
2022-12-25T07:44:20.588Z,12.80
2022-12-25T07:46:49.315Z,12.70
2022-12-25T07:49:41.663Z,12.70
2022-12-25T07:52:49.605Z,12.70
2022-12-25T07:56:31.671Z,12.60
2022-12-25T07:59:40.661Z,12.60
2022-12-25T08:02:31.456Z,12.60
2022-12-25T08:05:19.760Z,12.60
2022-12-25T08:08:03.020Z,12.50
2022-12-25T08:10:54.191Z,12.50
2022-12-25T08:16:47.162Z,12.50
2022-12-25T08:19:36.634Z,12.60
2022-12-25T08:22:26.996Z,12.50
2022-12-25T08:28:01.687Z,12.50
2022-12-25T08:30:28.686Z,12.50
2022-12-25T08:32:55.568Z,12.60
2022-12-25T08:35:22.391Z,12.50
2022-12-25T08:37:49.193Z,12.50
2022-12-25T08:40:16.064Z,12.60
2022-12-25T08:42:42.967Z,12.50
2022-12-25T08:45:10.408Z,12.60
2022-12-25T08:47:37.210Z,12.50
2022-12-25T08:50:04.546Z,12.60
2022-12-25T08:52:31.589Z,12.60
2022-12-25T08:54:58.310Z,12.60
2022-12-25T08:57:25.145Z,12.60
2022-12-25T08:59:51.844Z,12.60
2022-12-25T09:02:19.426Z,12.60
2022-12-25T09:04:46.748Z,12.70
2022-12-25T09:07:13.647Z,12.70
2022-12-25T09:09:43.509Z,12.70
2022-12-25T09:12:10.307Z,12.70
2022-12-25T09:14:37.030Z,12.80
2022-12-25T09:17:03.795Z,12.80
2022-12-25T09:19:31.005Z,12.80
2022-12-25T09:21:58.915Z,12.80
2022-12-25T09:24:25.783Z,12.90
2022-12-25T09:26:52.709Z,12.90
2022-12-25T09:29:19.501Z,13.00
2022-12-25T09:31:46.267Z,13.00
2022-12-25T09:34:17.192Z,13.00
2022-12-25T09:36:45.857Z,13.10
2022-12-25T09:39:12.648Z,13.10
2022-12-25T09:42:13.344Z,13.10
2022-12-25T09:44:46.966Z,13.20
2022-12-25T09:47:18.600Z,13.20
2022-12-25T09:49:58.199Z,13.30
2022-12-25T09:52:42.016Z,13.30
2022-12-25T09:55:20.025Z,13.40
2022-12-25T09:57:54.226Z,13.50
2022-12-25T10:00:24.240Z,13.50
2022-12-25T10:03:09.904Z,13.50
2022-12-25T10:05:56.802Z,13.60
2022-12-25T10:08:55.057Z,13.60
2022-12-25T10:11:49.919Z,13.60
2022-12-25T10:15:07.702Z,13.70
2022-12-25T10:17:43.874Z,13.70
2022-12-25T10:20:17.700Z,13.80
2022-12-25T10:22:49.826Z,13.80
2022-12-25T10:25:47.526Z,13.90
2022-12-25T10:28:23.480Z,13.90
2022-12-25T10:30:52.742Z,13.90
2022-12-25T10:33:36.957Z,14.00
2022-12-25T10:36:03.991Z,14.00
2022-12-25T10:42:38.557Z,14.10
2022-12-25T10:45:11.703Z,14.10
2022-12-25T10:47:59.544Z,14.20
2022-12-25T10:50:29.020Z,14.20
2022-12-25T10:53:01.369Z,14.20
2022-12-25T10:58:39.353Z,14.30
2022-12-25T11:01:08.875Z,14.20
2022-12-25T11:03:48.495Z,14.30
2022-12-25T11:06:28.609Z,14.80
2022-12-25T11:13:20.148Z,14.40
2022-12-25T11:16:26.763Z,14.40
2022-12-25T11:18:55.691Z,14.40
2022-12-25T11:21:34.689Z,14.40
2022-12-25T11:24:28.368Z,14.40
2022-12-25T11:27:09.776Z,14.50
2022-12-25T11:34:06.858Z,14.50
2022-12-25T11:36:57.571Z,14.50
2022-12-25T11:39:34.059Z,14.60
2022-12-25T11:42:54.332Z,14.60
2022-12-25T11:52:00.273Z,14.40
2022-12-25T11:54:42.817Z,14.70
2022-12-25T11:57:16.070Z,14.70
2022-12-25T12:00:38.139Z,14.60
2022-12-25T12:03:11.601Z,14.80
2022-12-25T12:05:54.165Z,14.80
2022-12-25T12:08:21.099Z,14.90
2022-12-25T12:11:29.697Z,14.90
2022-12-25T12:17:43.451Z,15.00
2022-12-25T12:20:43.662Z,15.00
2022-12-25T12:23:26.004Z,15.00
2022-12-25T12:25:53.743Z,15.10
2022-12-25T12:28:52.094Z,15.10
2022-12-25T12:31:45.704Z,15.20
2022-12-25T12:34:52.585Z,15.20
2022-12-25T12:37:44.124Z,15.20
2022-12-25T12:40:25.658Z,15.30
2022-12-25T12:45:56.449Z,15.40
2022-12-25T12:48:47.936Z,15.40
2022-12-25T12:52:05.484Z,15.60
2022-12-25T12:54:59.251Z,15.50
2022-12-25T12:57:49.155Z,15.50
2022-12-25T13:01:05.921Z,15.60
2022-12-25T13:04:39.292Z,15.70
2022-12-25T13:07:58.611Z,15.70
2022-12-25T13:10:52.040Z,15.70
2022-12-25T13:14:07.641Z,15.80
2022-12-25T13:16:57.348Z,15.80
2022-12-25T13:19:27.575Z,15.80
2022-12-25T13:26:37.259Z,15.80
2022-12-25T13:32:58.048Z,15.90
2022-12-25T13:35:25.106Z,15.80
2022-12-25T13:37:53.300Z,15.90
2022-12-25T13:40:20.095Z,15.90
2022-12-25T13:49:45.249Z,16.00
2022-12-25T14:03:04.223Z,16.00
2022-12-25T14:06:28.218Z,16.00
2022-12-25T14:12:31.865Z,16.00
2022-12-25T14:15:56.788Z,16.00
2022-12-25T14:19:15.131Z,16.00
2022-12-25T14:25:00.308Z,16.10
2022-12-25T14:27:30.452Z,16.10
2022-12-25T14:30:24.838Z,16.00
2022-12-25T14:39:38.176Z,16.00
2022-12-25T14:45:38.465Z,16.00
2022-12-25T14:48:41.030Z,16.00
2022-12-25T14:51:56.445Z,16.00
2022-12-25T15:23:54.964Z,15.80
2022-12-25T15:30:20.693Z,15.80
2022-12-25T15:33:45.366Z,15.80
2022-12-25T15:40:36.796Z,15.80
2022-12-25T15:58:20.872Z,15.80
2022-12-25T16:04:41.400Z,15.80
2022-12-25T16:07:47.154Z,16.30
2022-12-25T16:11:11.789Z,16.00
2022-12-25T16:14:13.416Z,16.00
2022-12-25T16:17:19.278Z,16.00
2022-12-25T16:20:11.957Z,16.00
2022-12-25T16:46:59.304Z,16.00
2022-12-25T16:50:00.083Z,16.00
2022-12-25T16:52:26.969Z,16.00
2022-12-25T16:54:53.717Z,16.00
2022-12-25T17:05:10.339Z,16.10
2022-12-25T17:07:50.441Z,16.00
2022-12-25T17:11:03.638Z,16.00
2022-12-25T17:13:55.697Z,16.00
2022-12-25T17:20:19.473Z,16.00
2022-12-25T17:23:14.326Z,16.00
2022-12-25T17:26:39.990Z,16.00
2022-12-25T17:29:48.774Z,15.90
2022-12-25T17:32:33.554Z,16.00
2022-12-25T17:35:27.814Z,16.00
2022-12-25T17:38:15.982Z,16.00
2022-12-25T17:41:27.359Z,15.90
2022-12-25T17:46:55.362Z,15.90
2022-12-25T17:52:43.704Z,16.00
2022-12-25T17:55:30.300Z,16.00
2022-12-25T17:58:24.878Z,16.00
2022-12-25T18:01:11.646Z,15.90
2022-12-25T18:04:02.757Z,16.00
2022-12-25T18:06:54.836Z,16.00
2022-12-25T18:12:51.089Z,15.90
2022-12-25T18:15:44.846Z,16.00
2022-12-25T18:18:52.611Z,16.00
2022-12-25T18:24:41.619Z,16.00
2022-12-25T18:27:15.777Z,16.00
2022-12-25T18:33:08.925Z,16.00
2022-12-25T18:35:58.117Z,16.00
2022-12-25T18:38:39.816Z,16.00
2022-12-25T18:41:32.062Z,15.90
2022-12-25T18:44:16.933Z,16.00
2022-12-25T18:47:04.569Z,16.00
2022-12-25T18:49:45.441Z,16.00
2022-12-25T18:52:47.851Z,16.00
2022-12-25T18:55:36.087Z,16.00
2022-12-25T18:58:03.901Z,16.10
2022-12-25T19:01:08.550Z,16.00
2022-12-25T19:03:37.769Z,16.10
2022-12-25T19:06:20.530Z,16.00
2022-12-25T19:09:08.949Z,16.00
2022-12-25T19:12:01.487Z,16.00
2022-12-25T19:14:47.310Z,16.00
2022-12-25T19:17:56.949Z,16.10
2022-12-25T19:20:53.881Z,16.00
2022-12-25T19:23:50.371Z,16.00
2022-12-25T19:29:57.346Z,16.00
2022-12-25T19:32:35.379Z,16.00
2022-12-25T19:35:20.196Z,16.00
2022-12-25T19:37:59.413Z,16.00
2022-12-25T19:42:06.940Z,16.00
2022-12-25T19:48:07.843Z,16.00
2022-12-25T19:50:56.810Z,16.00
2022-12-25T19:53:56.760Z,15.90
2022-12-25T20:00:13.509Z,16.00
2022-12-25T20:05:53.648Z,16.00
2022-12-25T20:08:43.167Z,15.90
2022-12-25T20:11:38.738Z,15.90
2022-12-25T20:14:32.984Z,16.00
2022-12-25T20:17:26.292Z,15.90
2022-12-25T20:20:27.415Z,16.00
2022-12-25T20:23:09.567Z,16.00
2022-12-25T20:29:08.580Z,16.00
2022-12-25T20:31:54.879Z,16.00
2022-12-25T20:34:36.583Z,16.00
2022-12-25T20:38:13.654Z,15.90
2022-12-25T20:41:25.579Z,16.00
2022-12-25T20:44:01.670Z,15.90
2022-12-25T20:49:55.632Z,15.90
2022-12-25T20:52:51.135Z,15.90
2022-12-25T20:55:35.857Z,15.80
2022-12-25T20:58:37.913Z,15.70
2022-12-25T21:01:28.328Z,15.70
2022-12-25T21:07:06.026Z,15.60
2022-12-25T21:09:41.434Z,15.60
2022-12-25T21:12:25.490Z,15.50
2022-12-25T21:15:13.346Z,15.40
2022-12-25T21:18:25.090Z,15.10
2022-12-25T21:20:54.229Z,15.40
2022-12-25T21:23:47.910Z,15.30
2022-12-25T21:26:47.979Z,15.30
2022-12-25T21:30:15.116Z,15.20
2022-12-25T21:33:18.297Z,15.10
2022-12-25T21:35:57.406Z,15.20
2022-12-25T21:38:40.321Z,15.10
2022-12-25T21:44:13.534Z,15.10
2022-12-25T21:50:38.907Z,15.00
2022-12-25T21:53:06.631Z,15.00
2022-12-25T21:55:36.295Z,14.90
2022-12-25T21:58:03.107Z,14.90
2022-12-25T22:00:29.912Z,14.90
2022-12-25T22:02:57.521Z,14.80
2022-12-25T22:05:42.995Z,14.80
2022-12-25T22:11:29.601Z,14.50
2022-12-25T22:14:57.386Z,14.70
2022-12-25T22:18:07.689Z,14.70
2022-12-25T22:36:28.195Z,14.70
2022-12-25T22:39:11.412Z,14.80
2022-12-25T22:41:54.522Z,14.70
2022-12-25T22:44:48.987Z,14.80
2022-12-25T22:47:33.746Z,14.80
2022-12-25T22:53:41.799Z,14.90
2022-12-25T22:56:24.203Z,15.00
2022-12-25T22:59:06.758Z,15.00
2022-12-25T23:02:10.183Z,15.00
2022-12-25T23:07:57.913Z,15.10
2022-12-25T23:10:29.324Z,15.20
2022-12-25T23:13:51.904Z,15.20
2022-12-25T23:16:55.247Z,15.20
2022-12-25T23:24:15.639Z,15.30
2022-12-25T23:27:19.245Z,15.40
2022-12-25T23:36:04.996Z,15.40
2022-12-25T23:38:45.962Z,15.40
2022-12-25T23:45:06.069Z,15.40
2022-12-25T23:53:32.641Z,15.50
2022-12-25T23:56:18.150Z,15.90
2022-12-25T23:59:05.824Z,15.50
